Time;durP1;ratioP1;P1;durP2;ratioP2;P2;SDS_P1;SDS_P2;PMS_P1;PMS_P2;Temp;Humidity;BMP_temperature;BMP_pressure;BME280_temperature;BME280_humidity;BME280_pressure;Samples;Min_cycle;Max_cycle;Signal;HPM_P1;HPM_P2
2021/12/05 00:17:48;;;;;;;31.27;21.17;;;3.50;99.90;;;;;;5010742;28;20056;-46
2021/12/05 00:23:18;;;;;;;40.80;25.05;;;3.60;99.90;;;;;;5010905;28;20521;-45
2021/12/05 00:25:48;;;;;;;;;;;3.80;99.90;;;;;;5010966;28;20038;-45
2021/12/05 00:33:50;;;;;;;36.83;24.67;;;4.00;99.90;;;;;;5070264;28;20079;-45
2021/12/05 00:44:52;;;;;;;29.65;19.25;;;4.00;99.90;;;;;;5070389;28;20170;-45
2021/12/05 00:52:47;;;;;;;37.65;27.73;;;4.30;99.90;;;;;;5113277;28;20061;-46
2021/12/05 01:11:17;;;;;;;;;;;4.60;99.90;;;;;;5075326;28;20024;-46
2021/12/05 01:14:10;;;;;;;35.97;22.95;;;4.60;99.90;;;;;;5074824;28;20358;-45
2021/12/05 01:16:38;;;;;;;35.75;23.40;;;4.60;99.90;;;;;;5074748;28;20058;-46
2021/12/05 01:19:07;;;;;;;36.45;25.02;;;4.60;99.90;;;;;;5074670;28;20590;-44
2021/12/05 01:21:34;;;;;;;37.33;24.45;;;4.80;99.90;;;;;;5074633;28;20123;-52
2021/12/05 01:24:11;;;;;;;32.83;21.75;;;5.00;99.90;;;;;;5074841;28;20119;-44
2021/12/05 01:32:11;;;;;;;34.35;23.35;;;4.90;99.90;;;;;;5015442;28;20034;-44
2021/12/05 01:50:30;;;;;;;54.42;32.00;;;4.30;99.90;;;;;;5014499;28;20109;-44
2021/12/05 02:31:30;;;;;;;27.92;18.10;;;4.50;99.90;;;;;;5032504;28;20087;-45
2021/12/05 02:44:52;;;;;;;28.70;19.08;;;4.80;99.90;;;;;;5032002;28;20052;-46
2021/12/05 02:47:22;;;;;;;26.85;18.52;;;5.10;99.90;;;;;;4999352;28;20046;-46
2021/12/05 02:49:51;;;;;;;27.65;19.48;;;5.10;99.90;;;;;;5032551;28;20034;-46
2021/12/05 02:52:26;;;;;;;27.45;19.75;;;5.10;99.90;;;;;;5023770;28;20051;-44
2021/12/05 02:54:56;;;;;;;26.77;19.35;;;5.30;99.90;;;;;;5038312;28;20492;-45
2021/12/05 02:57:45;;;;;;;28.55;19.48;;;5.40;99.90;;;;;;5072036;28;20036;-45
2021/12/05 03:00:31;;;;;;;27.55;19.65;;;5.40;99.90;;;;;;5071973;28;20040;-45
2021/12/05 03:02:57;;;;;;;29.83;20.40;;;5.20;99.90;;;;;;5051673;28;20076;-45
2021/12/05 03:05:24;;;;;;;26.13;18.85;;;5.30;99.90;;;;;;5052038;28;20044;-45
2021/12/05 03:07:56;;;;;;;27.38;19.67;;;5.40;99.90;;;;;;5052323;28;20091;-47
2021/12/05 03:10:22;;;;;;;28.35;19.05;;;5.30;99.90;;;;;;5035990;28;20041;-44
2021/12/05 03:12:48;;;;;;;27.90;20.00;;;5.20;99.90;;;;;;5050829;28;20040;-45
2021/12/05 03:15:17;;;;;;;25.05;18.60;;;5.20;99.90;;;;;;5035439;28;20041;-45
2021/12/05 03:17:43;;;;;;;28.08;19.52;;;5.20;99.90;;;;;;5055333;28;20365;-52
2021/12/05 03:20:12;;;;;;;26.40;18.90;;;5.10;99.90;;;;;;5072231;28;20043;-45
2021/12/05 03:22:38;;;;;;;28.65;19.75;;;5.10;99.90;;;;;;5073263;28;20442;-45
2021/12/05 03:25:05;;;;;;;28.88;21.13;;;5.10;99.90;;;;;;5055307;28;20036;-45
2021/12/05 03:27:32;;;;;;;29.85;20.02;;;5.20;99.90;;;;;;5071110;28;20072;-55
2021/12/05 03:29:58;;;;;;;25.85;18.20;;;5.10;99.90;;;;;;5071780;28;20503;-45
2021/12/05 03:32:24;;;;;;;28.45;18.88;;;5.10;99.90;;;;;;5071123;28;20044;-45
2021/12/05 03:34:50;;;;;;;29.17;19.67;;;5.10;99.90;;;;;;5056073;28;20040;-44
2021/12/05 03:37:16;;;;;;;27.15;17.67;;;5.10;99.90;;;;;;5072322;28;20036;-45
2021/12/05 03:39:42;;;;;;;31.38;21.05;;;5.20;99.90;;;;;;5087437;28;20414;-45
2021/12/05 03:42:09;;;;;;;27.80;19.17;;;5.20;99.90;;;;;;5113731;28;20023;-45
2021/12/05 03:44:37;;;;;;;28.20;19.60;;;5.30;99.90;;;;;;5113857;28;20038;-44
2021/12/05 03:47:05;;;;;;;32.65;22.50;;;5.40;99.90;;;;;;5113696;28;20084;-45
2021/12/05 03:49:32;;;;;;;80.72;55.22;;;5.60;99.90;;;;;;5103089;28;20059;-45
2021/12/05 03:52:04;;;;;;;29.02;20.90;;;5.50;99.90;;;;;;5110620;28;20034;-46
2021/12/05 03:54:30;;;;;;;;;;;5.40;99.90;;;;;;5093449;28;20038;-46
2021/12/05 03:56:59;;;;;;;75.38;53.55;;;5.50;99.90;;;;;;5093138;28;20359;-45
2021/12/05 03:59:28;;;;;;;28.58;19.50;;;5.40;99.90;;;;;;5096395;28;20467;-46
2021/12/05 04:01:55;;;;;;;30.15;21.67;;;5.40;99.90;;;;;;5113282;28;20039;-44
2021/12/05 04:04:21;;;;;;;30.98;21.35;;;5.40;99.90;;;;;;5076865;28;20126;-44
2021/12/05 04:06:48;;;;;;;26.08;16.70;;;5.50;99.90;;;;;;5101727;28;20044;-45
2021/12/05 04:09:16;;;;;;;29.42;19.77;;;5.30;99.90;;;;;;5092642;28;20028;-45
2021/12/05 04:11:47;;;;;;;30.73;19.42;;;5.30;99.90;;;;;;5093122;28;20053;-45
2021/12/05 04:14:16;;;;;;;29.17;19.63;;;5.20;99.90;;;;;;5093292;28;20494;-45
2021/12/05 04:16:43;;;;;;;29.42;20.42;;;5.20;99.90;;;;;;5092815;28;20395;-46
2021/12/05 04:19:09;;;;;;;54.97;26.95;;;5.10;99.90;;;;;;5105055;28;20403;-44
2021/12/05 04:21:37;;;;;;;38.05;21.90;;;5.10;99.90;;;;;;5107417;28;20030;-46
2021/12/05 04:24:05;;;;;;;41.40;24.30;;;5.20;99.90;;;;;;5097525;28;20093;-45
2021/12/05 04:26:32;;;;;;;36.17;22.20;;;5.40;99.90;;;;;;5056808;28;20064;-44
2021/12/05 04:28:58;;;;;;;30.58;21.25;;;5.60;99.90;;;;;;5090618;28;20036;-45
2021/12/05 04:31:24;;;;;;;31.42;20.33;;;5.70;99.90;;;;;;5092321;28;20385;-46
2021/12/05 04:33:51;;;;;;;27.48;19.95;;;5.50;99.90;;;;;;5093074;28;20105;-44
2021/12/05 04:36:18;;;;;;;29.73;20.50;;;5.60;99.90;;;;;;5090577;28;20123;-45
2021/12/05 04:38:45;;;;;;;29.25;20.20;;;5.90;99.90;;;;;;5057876;28;20044;-44
2021/12/05 04:41:11;;;;;;;29.30;21.77;;;6.00;99.90;;;;;;5097030;28;20032;-44
2021/12/05 04:43:38;;;;;;;31.52;20.77;;;6.10;99.90;;;;;;5094368;28;20047;-45
2021/12/05 04:46:16;;;;;;;32.33;20.55;;;6.10;99.90;;;;;;5099159;28;20035;-47
2021/12/05 04:48:47;;;;;;;26.13;17.90;;;6.20;99.90;;;;;;5097023;28;20060;-44
2021/12/05 04:51:14;;;;;;;25.85;18.08;;;6.10;99.90;;;;;;5096545;28;20028;-45
2021/12/05 04:53:40;;;;;;;26.90;19.10;;;6.20;99.90;;;;;;5096366;28;20085;-45
2021/12/05 04:56:05;;;;;;;29.08;19.88;;;6.10;99.90;;;;;;5096629;28;20036;-45
2021/12/05 04:58:32;;;;;;;29.83;21.17;;;6.10;99.90;;;;;;5077057;28;20119;-43
2021/12/05 05:00:58;;;;;;;36.45;22.00;;;6.10;99.90;;;;;;5096360;28;20062;-45
2021/12/05 05:03:25;;;;;;;32.95;23.42;;;6.00;99.90;;;;;;5099373;28;20121;-45
2021/12/05 05:05:59;;;;;;;34.90;22.52;;;6.10;99.90;;;;;;5116667;28;20119;-45
2021/12/05 05:08:27;;;;;;;33.95;24.08;;;5.90;99.90;;;;;;5117931;28;20042;-56
2021/12/05 05:10:53;;;;;;;32.83;23.33;;;5.90;99.90;;;;;;5116902;28;20032;-45
2021/12/05 05:13:18;;;;;;;38.17;24.73;;;6.00;99.90;;;;;;5116403;28;20107;-45
2021/12/05 05:15:44;;;;;;;32.75;23.20;;;5.90;99.90;;;;;;5116344;28;20139;-45
2021/12/05 05:18:12;;;;;;;30.20;22.48;;;6.00;99.90;;;;;;5116235;28;20031;-45
2021/12/05 05:20:52;;;;;;;35.13;22.85;;;6.10;99.90;;;;;;5114817;28;20040;-45
2021/12/05 05:28:54;;;;;;;31.73;22.17;;;6.40;99.90;;;;;;5117722;28;20082;-56
2021/12/05 05:47:10;;;;;;;34.50;24.17;;;6.60;99.90;;;;;;5078260;28;20042;-45
2021/12/05 05:52:16;;;;;;;35.58;24.55;;;6.50;99.90;;;;;;5114208;28;20035;-45
2021/12/05 05:54:45;;;;;;;37.33;29.45;;;6.60;99.90;;;;;;5114481;28;20034;-45
2021/12/05 05:57:30;;;;;;;73.65;40.13;;;6.70;99.90;;;;;;5114554;28;20031;-44
2021/12/05 06:00:07;;;;;;;38.25;25.02;;;6.90;99.90;;;;;;5099402;28;20047;-45
2021/12/05 06:05:18;;;;;;;54.13;37.42;;;6.90;99.90;;;;;;5116894;28;20034;-46
2021/12/05 06:07:46;;;;;;;65.57;45.45;;;6.60;99.90;;;;;;5110075;28;20080;-46
2021/12/05 06:10:18;;;;;;;73.10;51.10;;;6.60;99.90;;;;;;5070877;28;20072;-45
2021/12/05 06:12:44;;;;;;;74.25;54.58;;;6.80;99.90;;;;;;5080972;28;20174;-46
2021/12/05 06:15:12;;;;;;;52.40;34.45;;;6.70;99.90;;;;;;5071302;28;20043;-44
2021/12/05 06:17:39;;;;;;;39.70;28.67;;;6.70;99.90;;;;;;5073501;28;20028;-46
2021/12/05 06:20:15;;;;;;;37.50;25.92;;;6.50;99.90;;;;;;5075086;28;20040;-46
2021/12/05 06:22:41;;;;;;;46.13;28.40;;;6.60;99.90;;;;;;5075812;28;20484;-44
2021/12/05 06:25:14;;;;;;;32.78;23.50;;;6.80;99.90;;;;;;5075063;28;20037;-46
2021/12/05 06:27:41;;;;;;;39.35;25.85;;;6.60;99.90;;;;;;5042508;28;20097;-46
2021/12/05 06:30:13;;;;;;;43.88;28.88;;;6.30;99.90;;;;;;5091829;28;20044;-46
2021/12/05 06:38:11;;;;;;;46.40;29.40;;;6.00;99.90;;;;;;5071663;28;20507;-50
2021/12/05 06:41:04;;;;;;;54.88;37.47;;;6.00;99.90;;;;;;5072182;28;20051;-45
2021/12/05 06:48:33;;;;;;;62.17;44.42;;;5.80;99.90;;;;;;5074179;28;20111;-47
2021/12/05 06:50:59;;;;;;;54.55;35.45;;;5.90;99.90;;;;;;5072513;28;20032;-45
2021/12/05 06:53:25;;;;;;;41.70;29.40;;;5.90;99.90;;;;;;5073774;28;20033;-45
2021/12/05 06:55:50;;;;;;;46.15;30.83;;;5.80;99.90;;;;;;5073764;28;20039;-45
2021/12/05 06:58:16;;;;;;;53.90;32.90;;;5.80;99.90;;;;;;5088701;28;20074;-45
2021/12/05 07:00:42;;;;;;;48.25;31.67;;;5.70;99.90;;;;;;5076771;28;20415;-45
2021/12/05 07:03:09;;;;;;;47.30;31.15;;;5.60;99.90;;;;;;5100166;28;20067;-45
2021/12/05 07:08:23;;;;;;;39.40;27.25;;;5.60;99.90;;;;;;5090263;28;20069;-46
2021/12/05 07:15:53;;;;;;;34.30;23.33;;;5.80;99.90;;;;;;5108177;28;20044;-45
2021/12/05 07:26:14;;;;;;;36.72;22.27;;;5.90;99.90;;;;;;5110440;28;20528;-44
2021/12/05 07:42:24;;;;;;;20.88;14.32;;;6.00;99.90;;;;;;5109759;28;20460;-47
2021/12/05 07:44:55;;;;;;;25.38;17.48;;;5.80;99.90;;;;;;5110393;28;20119;-48
2021/12/05 07:47:25;;;;;;;30.40;18.67;;;5.80;99.90;;;;;;5106853;28;20065;-50
2021/12/05 07:49:53;;;;;;;25.25;17.65;;;6.00;99.90;;;;;;5085013;28;20085;-48
2021/12/05 07:52:22;;;;;;;31.92;22.45;;;6.10;99.90;;;;;;5070222;28;20040;-49
2021/12/05 07:55:10;;;;;;;25.58;18.67;;;6.10;99.90;;;;;;5073080;28;20036;-48
2021/12/05 07:57:51;;;;;;;22.80;17.08;;;6.10;99.90;;;;;;5076039;28;20115;-49
2021/12/05 08:00:33;;;;;;;23.50;17.15;;;6.30;99.90;;;;;;5091613;28;20078;-49
2021/12/05 08:16:46;;;;;;;14.32;8.07;;;6.20;99.90;;;;;;5110622;28;20466;-49
2021/12/05 08:19:12;;;;;;;18.52;12.80;;;5.90;99.90;;;;;;5114276;28;20429;-49
2021/12/05 08:21:37;;;;;;;17.40;12.00;;;6.00;99.90;;;;;;5112876;28;20089;-48
2021/12/05 08:24:03;;;;;;;21.75;14.88;;;6.00;99.90;;;;;;5113190;28;20115;-49
2021/12/05 08:26:33;;;;;;;16.98;11.20;;;6.00;99.90;;;;;;5094061;28;20106;-49
2021/12/05 08:29:07;;;;;;;23.30;17.05;;;6.00;99.90;;;;;;5105443;28;20085;-49
2021/12/05 08:31:54;;;;;;;18.13;11.88;;;6.20;99.90;;;;;;5103287;28;20036;-49
2021/12/05 08:34:43;;;;;;;25.70;15.98;;;6.10;99.90;;;;;;5100831;28;20075;-49
2021/12/05 09:29:38;;;;;;;23.45;14.80;;;7.30;99.90;;;;;;5092424;28;20044;-49
2021/12/05 10:07:20;;;;;;;31.73;22.45;;;7.70;99.90;;;;;;4878562;29;20056;-49
2021/12/05 10:12:42;;;;;;;32.45;21.92;;;7.80;99.90;;;;;;4935140;29;20480;-48
2021/12/05 10:26:57;;;;;;;28.48;17.88;;;8.40;99.90;;;;;;5112699;28;20038;-48
2021/12/05 10:40:38;;;;;;;24.98;16.60;;;8.50;99.90;;;;;;5111411;28;20048;-48
2021/12/05 10:43:13;;;;;;;29.17;19.20;;;8.40;99.90;;;;;;5107258;28;20597;-47
2021/12/05 10:45:48;;;;;;;27.05;19.52;;;8.30;99.90;;;;;;5100522;27;20031;-47
2021/12/05 10:48:46;;;;;;;35.85;24.02;;;8.50;99.90;;;;;;5101943;28;20606;-48
2021/12/05 10:51:34;;;;;;;35.30;24.40;;;8.50;99.90;;;;;;5090154;28;20471;-47
2021/12/05 10:54:07;;;;;;;28.50;20.30;;;8.50;99.90;;;;;;5072808;28;20032;-48
2021/12/05 10:56:34;;;;;;;33.85;24.20;;;8.50;99.90;;;;;;5090547;28;20032;-48
2021/12/05 10:59:07;;;;;;;39.92;28.30;;;8.60;99.90;;;;;;5090191;28;20467;-47
2021/12/05 11:01:55;;;;;;;36.65;24.88;;;8.50;99.90;;;;;;5090391;28;20020;-48
2021/12/05 11:04:31;;;;;;;29.42;23.25;;;8.50;99.90;;;;;;5090537;28;20085;-48
2021/12/05 11:06:58;;;;;;;33.92;24.30;;;8.40;99.90;;;;;;5090394;28;20032;-48
2021/12/05 11:09:30;;;;;;;41.40;31.90;;;8.40;99.90;;;;;;5073262;28;20047;-47
2021/12/05 11:12:19;;;;;;;58.42;42.65;;;8.60;99.90;;;;;;5090032;28;20498;-48
2021/12/05 11:14:48;;;;;;;71.65;46.45;;;8.60;99.90;;;;;;5092074;28;20107;-47
2021/12/05 11:17:32;;;;;;;112.47;66.93;;;8.50;99.90;;;;;;5092290;28;20048;-48
2021/12/05 11:20:12;;;;;;;86.38;53.20;;;8.30;99.90;;;;;;5092357;28;20472;-48
2021/12/05 11:22:42;;;;;;;97.40;58.20;;;8.20;99.90;;;;;;5092649;28;20027;-48
2021/12/05 11:25:10;;;;;;;91.70;50.70;;;8.20;99.90;;;;;;5092455;28;20028;-48
2021/12/05 11:27:44;;;;;;;84.75;52.95;;;8.10;99.90;;;;;;5092364;28;20043;-48
2021/12/05 11:30:31;;;;;;;79.60;51.80;;;8.10;99.90;;;;;;5092377;28;20024;-49
2021/12/05 11:33:07;;;;;;;83.22;50.15;;;8.10;99.90;;;;;;5092379;28;20035;-48
2021/12/05 11:35:33;;;;;;;169.98;86.50;;;8.00;99.90;;;;;;5092561;28;20089;-47
2021/12/05 11:38:21;;;;;;;199.15;103.53;;;7.90;99.90;;;;;;5092158;28;20020;-48
2021/12/05 11:40:55;;;;;;;151.95;86.68;;;7.90;99.90;;;;;;5092358;28;20024;-48
2021/12/05 11:43:33;;;;;;;184.45;89.00;;;8.00;99.90;;;;;;5072897;28;20040;-48
2021/12/05 11:46:12;;;;;;;94.13;59.42;;;8.20;99.90;;;;;;5092363;28;20077;-47
2021/12/05 11:48:54;;;;;;;88.75;55.22;;;8.20;99.90;;;;;;5091239;28;20085;-48
2021/12/05 11:51:33;;;;;;;111.68;65.10;;;8.10;99.90;;;;;;5092168;28;20475;-48
2021/12/05 11:54:09;;;;;;;92.82;59.08;;;8.10;99.90;;;;;;5092050;28;20659;-48
2021/12/05 11:56:35;;;;;;;78.90;53.50;;;7.90;99.90;;;;;;5092178;28;20024;-48
2021/12/05 11:59:15;;;;;;;77.55;54.95;;;8.00;99.90;;;;;;5092423;28;20084;-48
2021/12/05 12:01:57;;;;;;;84.57;59.15;;;8.10;99.90;;;;;;5092436;28;20073;-47
2021/12/05 12:04:35;;;;;;;73.53;53.80;;;8.30;99.90;;;;;;5091913;28;20039;-48
2021/12/05 12:07:19;;;;;;;73.70;51.30;;;8.50;99.90;;;;;;5091766;28;20073;-48
2021/12/05 12:09:47;;;;;;;85.00;56.88;;;8.40;99.90;;;;;;5091791;28;20028;-48
2021/12/05 12:12:15;;;;;;;79.15;54.33;;;8.30;99.90;;;;;;5088857;28;20040;-48
2021/12/05 12:14:41;;;;;;;84.90;58.75;;;8.00;99.90;;;;;;5088942;28;20445;-48
2021/12/05 12:17:13;;;;;;;85.20;57.40;;;7.90;99.90;;;;;;5088943;28;20044;-48
2021/12/05 12:19:39;;;;;;;85.93;53.70;;;7.80;99.90;;;;;;5089121;28;20031;-48
2021/12/05 12:22:08;;;;;;;92.60;62.88;;;7.70;99.90;;;;;;5055127;28;20067;-48
2021/12/05 12:24:35;;;;;;;72.78;46.25;;;7.70;99.90;;;;;;5088864;28;20499;-48
2021/12/05 12:27:01;;;;;;;81.13;58.15;;;7.50;99.90;;;;;;5088945;28;20044;-48
2021/12/05 12:29:28;;;;;;;62.10;43.30;;;7.50;99.90;;;;;;5088833;28;20036;-48
2021/12/05 12:32:01;;;;;;;52.85;35.95;;;7.30;99.90;;;;;;5089167;28;20040;-48
2021/12/05 12:34:27;;;;;;;56.85;38.15;;;7.20;99.90;;;;;;5055316;28;20039;-48
2021/12/05 12:36:59;;;;;;;53.80;36.35;;;7.00;99.90;;;;;;5055188;28;20097;-49
2021/12/05 12:39:39;;;;;;;49.90;34.60;;;7.10;99.90;;;;;;5089072;28;20052;-47
2021/12/05 12:42:12;;;;;;;54.60;37.42;;;7.00;99.90;;;;;;5089174;28;20417;-48
2021/12/05 12:44:55;;;;;;;45.10;29.65;;;7.00;99.90;;;;;;5091373;28;20078;-48
2021/12/05 12:47:37;;;;;;;44.97;27.27;;;6.80;99.90;;;;;;5089271;28;20079;-49
2021/12/05 12:50:19;;;;;;;32.00;20.85;;;6.70;99.90;;;;;;5108419;28;20039;-48
2021/12/05 12:52:56;;;;;;;29.73;19.38;;;6.50;99.90;;;;;;5111534;28;20023;-49
2021/12/05 12:55:27;;;;;;;37.13;19.13;;;6.50;99.90;;;;;;5110149;28;20028;-48
2021/12/05 12:57:53;;;;;;;41.38;26.77;;;6.50;99.90;;;;;;5108636;28;20031;-48
2021/12/05 13:00:23;;;;;;;35.72;24.40;;;6.60;99.90;;;;;;5108740;28;20064;-48
2021/12/05 13:11:04;;;;;;;26.63;16.92;;;7.00;99.90;;;;;;5115721;28;20042;-47
2021/12/05 13:13:32;;;;;;;29.50;19.52;;;7.00;99.90;;;;;;5115458;28;20024;-48
2021/12/05 13:16:20;;;;;;;24.27;17.70;;;7.00;99.90;;;;;;5115456;28;20104;-48
2021/12/05 13:18:49;;;;;;;27.42;18.75;;;7.10;99.90;;;;;;5115117;28;20034;-48
2021/12/05 13:21:31;;;;;;;29.30;17.17;;;7.10;99.90;;;;;;5113118;28;20495;-48
2021/12/05 13:23:57;;;;;;;24.02;15.15;;;7.20;99.90;;;;;;5096253;28;20095;-48
2021/12/05 13:26:42;;;;;;;20.30;11.70;;;7.00;99.90;;;;;;5113659;28;20036;-47
2021/12/05 13:29:26;;;;;;;19.90;11.10;;;6.80;99.90;;;;;;5115583;28;20166;-47
2021/12/05 13:32:07;;;;;;;16.33;9.82;;;6.60;99.90;;;;;;5103326;28;20032;-47
2021/12/05 13:34:41;;;;;;;19.15;11.52;;;6.50;99.90;;;;;;5092838;28;20071;-47
2021/12/05 13:37:08;;;;;;;17.52;11.07;;;6.50;99.90;;;;;;5094813;28;20502;-47
2021/12/05 13:39:39;;;;;;;20.67;12.98;;;6.50;99.90;;;;;;5094652;28;20060;-48
2021/12/05 13:42:14;;;;;;;15.55;9.40;;;6.50;99.90;;;;;;5058468;28;20040;-47
2021/12/05 13:44:58;;;;;;;23.10;13.43;;;6.50;99.90;;;;;;5094585;28;20051;-47
2021/12/05 13:47:31;;;;;;;19.95;11.68;;;6.40;99.90;;;;;;5094615;28;20039;-48
2021/12/05 13:50:16;;;;;;;18.83;10.75;;;6.40;99.90;;;;;;5094565;28;20039;-48
2021/12/05 13:53:03;;;;;;;17.52;10.63;;;6.30;99.90;;;;;;5094524;28;20036;-47
2021/12/05 13:55:39;;;;;;;23.77;13.23;;;6.30;99.90;;;;;;5071272;28;20067;-47
2021/12/05 13:58:41;;;;;;;19.77;12.32;;;6.30;99.90;;;;;;5071689;28;20563;-47
2021/12/05 14:01:10;;;;;;;19.88;11.52;;;6.30;99.90;;;;;;5071659;28;20626;-48
2021/12/05 14:04:01;;;;;;;16.27;10.75;;;6.30;99.90;;;;;;5071552;28;20142;-54
2021/12/05 14:07:01;;;;;;;23.42;14.38;;;6.30;99.90;;;;;;5059630;28;20044;-47
2021/12/05 14:09:36;;;;;;;28.10;16.77;;;6.30;99.90;;;;;;5077762;28;20369;-48
2021/12/05 14:12:24;;;;;;;21.15;12.02;;;6.30;99.90;;;;;;5075606;28;20037;-59
2021/12/05 14:14:59;;;;;;;21.58;12.88;;;6.30;99.90;;;;;;5076960;28;20040;-62
2021/12/05 14:17:35;;;;;;;33.20;19.65;;;6.30;99.90;;;;;;5077769;28;20043;-47
2021/12/05 14:20:11;;;;;;;21.83;14.23;;;6.30;99.90;;;;;;5076683;28;20100;-51
2021/12/05 14:22:39;;;;;;;19.38;12.50;;;6.30;99.90;;;;;;5075084;28;20040;-48
2021/12/05 14:25:12;;;;;;;27.17;15.05;;;6.30;99.90;;;;;;5072072;28;20166;-47
2021/12/05 14:27:42;;;;;;;24.17;13.95;;;6.30;99.90;;;;;;5072238;28;20086;-47
2021/12/05 14:30:20;;;;;;;26.10;16.85;;;6.30;99.90;;;;;;5055235;28;20040;-47
2021/12/05 14:32:47;;;;;;;48.63;31.17;;;6.40;99.90;;;;;;5073474;28;20063;-47
2021/12/05 14:35:24;;;;;;;51.95;30.40;;;6.40;99.90;;;;;;5074855;28;20683;-47
2021/12/05 14:37:52;;;;;;;58.63;34.00;;;6.50;99.90;;;;;;5074562;28;20071;-47
2021/12/05 14:40:31;;;;;;;57.03;39.22;;;6.50;99.90;;;;;;5089476;28;20059;-47
2021/12/05 14:43:09;;;;;;;37.95;24.27;;;6.60;99.90;;;;;;5089355;28;20046;-48
2021/12/05 14:45:38;;;;;;;33.70;23.35;;;6.60;99.90;;;;;;5074475;28;20046;-47
2021/12/05 14:48:08;;;;;;;31.88;23.52;;;6.60;99.90;;;;;;5074171;28;20135;-47
2021/12/05 14:50:36;;;;;;;29.83;21.17;;;6.60;99.90;;;;;;5072282;28;20048;-48
2021/12/05 14:53:06;;;;;;;28.90;16.75;;;6.70;99.90;;;;;;5074609;28;20029;-47
2021/12/05 14:55:34;;;;;;;34.13;22.23;;;6.70;99.90;;;;;;5105250;28;20119;-47
2021/12/05 14:58:06;;;;;;;30.23;19.67;;;6.70;99.90;;;;;;5074129;28;20024;-47
2021/12/05 15:00:34;;;;;;;32.55;21.08;;;6.60;99.90;;;;;;5088617;28;20503;-48
2021/12/05 15:03:17;;;;;;;29.95;19.02;;;6.70;99.90;;;;;;5074029;28;20032;-47
2021/12/05 15:05:49;;;;;;;32.58;21.20;;;6.70;99.90;;;;;;5076841;28;20108;-48
2021/12/05 15:08:16;;;;;;;;;;;6.60;99.90;;;;;;5074630;28;20040;-48
2021/12/05 15:10:44;;;;;;;18.17;9.48;;;6.50;99.90;;;;;;5077499;28;19952;-70
2021/12/05 15:13:11;;;;;;;27.77;17.70;;;6.50;99.90;;;;;;5075698;28;20040;-48
2021/12/05 15:15:39;;;;;;;20.58;12.43;;;6.50;99.90;;;;;;5080011;28;20055;-47
2021/12/05 15:18:12;;;;;;;19.90;13.18;;;6.50;99.90;;;;;;5074832;28;20044;-47
2021/12/05 15:20:38;;;;;;;22.02;12.70;;;6.40;99.90;;;;;;5094175;28;20065;-47
2021/12/05 15:23:07;;;;;;;19.23;12.25;;;6.50;99.90;;;;;;5091263;28;20099;-47
2021/12/05 15:25:36;;;;;;;19.42;12.57;;;6.50;99.90;;;;;;5094301;28;20162;-47
2021/12/05 15:28:03;;;;;;;15.90;10.38;;;6.50;99.90;;;;;;5074385;28;20059;-47
2021/12/05 15:30:43;;;;;;;20.48;11.35;;;6.60;99.90;;;;;;5074248;28;20093;-50
2021/12/05 15:33:15;;;;;;;25.83;18.90;;;6.60;99.90;;;;;;5093266;28;20090;-47
2021/12/05 15:35:43;;;;;;;20.27;12.10;;;6.60;99.90;;;;;;5093310;28;20060;-47
2021/12/05 15:38:12;;;;;;;24.23;15.90;;;6.60;99.90;;;;;;5092636;28;20510;-47
2021/12/05 15:40:42;;;;;;;25.52;16.75;;;6.60;99.90;;;;;;5092974;28;20555;-48
2021/12/05 15:43:10;;;;;;;18.65;11.07;;;6.70;99.90;;;;;;5111831;28;20030;-48
2021/12/05 15:45:37;;;;;;;22.48;14.85;;;6.80;99.90;;;;;;5112323;28;20036;-47
2021/12/05 15:48:03;;;;;;;30.90;19.63;;;6.80;99.90;;;;;;5111706;28;20039;-47
2021/12/05 15:50:32;;;;;;;24.13;17.50;;;6.80;99.90;;;;;;5112370;28;20030;-47
2021/12/05 15:53:01;;;;;;;27.45;16.67;;;6.70;99.90;;;;;;5112276;28;20039;-48
2021/12/05 15:55:37;;;;;;;18.20;12.48;;;6.70;99.90;;;;;;5111900;28;20120;-47
2021/12/05 15:58:30;;;;;;;22.40;15.07;;;6.70;99.90;;;;;;5112084;28;20050;-47
2021/12/05 16:00:59;;;;;;;;;;;6.70;99.90;;;;;;5112408;28;20039;-47
2021/12/05 16:03:37;;;;;;;18.30;12.32;;;6.70;99.90;;;;;;5112307;28;19908;-47
2021/12/05 16:06:04;;;;;;;19.13;12.18;;;6.70;99.90;;;;;;5112604;28;20084;-47
2021/12/05 16:08:32;;;;;;;25.05;15.02;;;6.60;99.90;;;;;;5112157;28;20046;-47
2021/12/05 16:11:00;;;;;;;13.65;9.63;;;6.60;99.90;;;;;;5112542;27;20066;-47
2021/12/05 16:13:31;;;;;;;20.40;13.23;;;6.60;99.90;;;;;;5112003;28;20062;-47
2021/12/05 16:16:11;;;;;;;17.95;11.65;;;6.60;99.90;;;;;;5111922;28;20494;-48
2021/12/05 16:18:40;;;;;;;19.35;12.13;;;6.70;99.90;;;;;;5093078;28;20192;-48
2021/12/05 16:21:22;;;;;;;29.05;18.85;;;6.70;99.90;;;;;;5112263;28;20032;-47
2021/12/05 16:23:49;;;;;;;27.50;16.25;;;6.70;99.90;;;;;;5112286;28;20031;-47
2021/12/05 16:26:20;;;;;;;23.75;15.40;;;6.60;99.90;;;;;;5075761;28;20497;-47
2021/12/05 16:28:51;;;;;;;29.17;19.13;;;6.70;99.90;;;;;;5111810;28;20134;-47
2021/12/05 16:31:27;;;;;;;25.20;16.60;;;6.80;99.90;;;;;;5055045;28;20063;-48
2021/12/05 16:34:05;;;;;;;20.67;13.00;;;6.70;99.90;;;;;;5089222;28;20588;-47
2021/12/05 16:36:39;;;;;;;32.50;21.70;;;6.60;99.90;;;;;;5093100;28;20497;-48
2021/12/05 16:39:10;;;;;;;27.23;18.73;;;6.70;99.90;;;;;;5076010;28;20050;-48
2021/12/05 16:41:36;;;;;;;23.42;17.08;;;6.80;99.90;;;;;;5059297;28;20502;-48
2021/12/05 16:44:12;;;;;;;21.73;13.60;;;6.70;99.90;;;;;;5093277;28;20032;-47
2021/12/05 16:46:51;;;;;;;16.13;11.27;;;6.70;99.90;;;;;;5091883;28;20052;-47
2021/12/05 16:49:21;;;;;;;20.60;14.15;;;6.70;99.90;;;;;;5059177;28;20449;-49
2021/12/05 16:51:56;;;;;;;33.72;21.65;;;6.70;99.90;;;;;;5093403;28;20044;-48
2021/12/05 16:54:31;;;;;;;26.17;17.15;;;6.70;99.90;;;;;;5092713;28;20484;-47
2021/12/05 16:57:21;;;;;;;31.48;19.83;;;6.80;99.90;;;;;;5092551;28;20040;-48
2021/12/05 16:59:50;;;;;;;27.60;17.25;;;6.80;99.90;;;;;;4991038;28;20046;-48
2021/12/05 17:02:25;;;;;;;19.80;11.00;;;6.80;99.90;;;;;;4986084;28;20396;-48
2021/12/05 17:05:18;;;;;;;24.08;12.80;;;6.70;99.90;;;;;;5031960;28;20041;-47
2021/12/05 17:07:55;;;;;;;18.75;10.68;;;6.60;99.90;;;;;;5021311;28;20048;-48
2021/12/05 17:10:21;;;;;;;23.33;15.27;;;6.60;99.90;;;;;;5016676;28;20151;-48
2021/12/05 17:12:54;;;;;;;24.95;15.23;;;6.60;99.90;;;;;;5033381;28;20160;-48
2021/12/05 17:15:23;;;;;;;16.23;10.88;;;6.60;99.90;;;;;;5014249;28;20033;-48
2021/12/05 17:17:53;;;;;;;16.35;8.95;;;6.60;99.90;;;;;;5033620;28;20045;-48
2021/12/05 17:20:27;;;;;;;21.42;14.98;;;6.60;99.90;;;;;;5031778;28;20057;-48
2021/12/05 17:22:55;;;;;;;14.27;9.57;;;6.60;99.90;;;;;;5029862;28;20507;-48
2021/12/05 17:25:49;;;;;;;20.83;15.35;;;6.60;99.90;;;;;;5015443;28;20497;-48
2021/12/05 17:28:19;;;;;;;15.88;10.60;;;6.70;99.90;;;;;;5027218;28;20091;-47
2021/12/05 17:30:54;;;;;;;15.23;8.43;;;6.70;99.90;;;;;;5010797;28;20045;-48
2021/12/05 17:33:24;;;;;;;17.75;10.63;;;6.70;99.90;;;;;;5011653;28;20050;-48
2021/12/05 17:35:50;;;;;;;23.13;15.07;;;6.70;99.90;;;;;;5016144;28;20156;-48
2021/12/05 17:38:16;;;;;;;14.65;8.95;;;6.70;99.90;;;;;;5071701;28;20126;-48
2021/12/05 17:40:42;;;;;;;22.25;14.07;;;6.70;99.90;;;;;;5071879;28;20102;-47
2021/12/05 17:43:08;;;;;;;31.42;19.60;;;6.70;99.90;;;;;;5071095;28;20400;-48
2021/12/05 17:45:37;;;;;;;35.00;23.90;;;6.80;99.90;;;;;;5071047;28;20051;-47
2021/12/05 17:48:07;;;;;;;35.22;24.60;;;6.80;99.90;;;;;;5054608;28;20052;-47
2021/12/05 17:50:33;;;;;;;43.47;25.83;;;6.80;99.90;;;;;;5051735;28;20211;-48
2021/12/05 17:52:59;;;;;;;54.42;34.35;;;6.80;99.90;;;;;;5034473;28;20120;-48
2021/12/05 17:55:30;;;;;;;60.90;34.50;;;6.90;99.90;;;;;;5034927;28;20040;-48
2021/12/05 17:58:09;;;;;;;135.07;67.05;;;7.00;99.90;;;;;;5051444;28;20036;-48
2021/12/05 18:00:56;;;;;;;63.38;40.08;;;7.10;99.90;;;;;;5034510;28;20072;-48
2021/12/05 18:03:22;;;;;;;43.08;30.00;;;7.40;99.90;;;;;;5051302;28;20115;-48
2021/12/05 18:05:50;;;;;;;27.08;17.85;;;7.50;99.90;;;;;;5051334;28;20043;-48
2021/12/05 18:08:21;;;;;;;30.48;21.30;;;7.40;99.90;;;;;;5050858;28;20048;-48
2021/12/05 18:10:52;;;;;;;29.85;20.95;;;7.50;99.90;;;;;;5051518;28;20040;-47
2021/12/05 18:13:22;;;;;;;29.02;20.63;;;7.60;99.90;;;;;;5051160;28;20127;-48
2021/12/05 18:16:15;;;;;;;30.42;22.15;;;7.70;99.90;;;;;;5050979;28;20602;-48
2021/12/05 18:18:41;;;;;;;32.85;23.35;;;7.70;99.90;;;;;;5031028;28;20052;-48
2021/12/05 18:21:12;;;;;;;33.03;25.35;;;7.60;99.90;;;;;;5037478;28;20037;-47
2021/12/05 18:23:39;;;;;;;33.15;23.63;;;7.70;99.90;;;;;;5030811;28;20123;-48
2021/12/05 18:26:06;;;;;;;33.10;25.08;;;7.80;99.90;;;;;;5030933;28;20038;-48
2021/12/05 18:28:34;;;;;;;51.83;34.70;;;7.90;99.90;;;;;;5044334;28;20072;-47
2021/12/05 18:31:02;;;;;;;68.95;44.15;;;7.90;99.90;;;;;;5050301;28;20052;-48